Time;durP1;ratioP1;P1;durP2;ratioP2;P2;SDS_P1;SDS_P2;PMS_P1;PMS_P2;Temp;Humidity;BMP_temperature;BMP_pressure;BME280_temperature;BME280_humidity;BME280_pressure;Samples;Min_cycle;Max_cycle;Signal;HPM_P1;HPM_P2
2022/09/08 00:01:30;;;;;;;2.63;2.27;;;;;;;18.99;100.00;99643.19;4969171;28;20198;-77
2022/09/08 00:03:55;;;;;;;2.70;2.50;;;;;;;18.98;100.00;99652.00;4966995;28;20216;-74
2022/09/08 00:06:21;;;;;;;3.73;3.00;;;;;;;18.95;100.00;99641.69;4961521;28;20222;-75
2022/09/08 00:08:48;;;;;;;3.50;3.20;;;;;;;18.94;100.00;99643.44;4963729;28;20189;-74
2022/09/08 00:11:20;;;;;;;3.30;3.00;;;;;;;18.93;100.00;99643.50;4965704;28;20636;-75
2022/09/08 00:13:47;;;;;;;3.37;3.07;;;;;;;18.93;100.00;99643.50;4972293;28;20193;-75
2022/09/08 00:16:15;;;;;;;2.70;2.50;;;;;;;18.96;100.00;99646.00;4961895;28;20690;-74
2022/09/08 00:18:41;;;;;;;3.10;2.80;;;;;;;18.96;100.00;99644.22;4962096;28;20195;-76
2022/09/08 00:21:06;;;;;;;3.40;3.10;;;;;;;18.97;100.00;99642.44;4963583;28;20706;-76
2022/09/08 00:23:32;;;;;;;2.90;2.63;;;;;;;18.99;100.00;99640.56;4967822;28;20695;-75
2022/09/08 00:25:58;;;;;;;3.00;2.80;;;;;;;18.98;100.00;99646.75;4970032;28;20309;-74
2022/09/08 00:28:23;;;;;;;3.37;2.90;;;;;;;18.98;100.00;99649.38;4972355;28;20612;-75
2022/09/08 00:30:49;;;;;;;3.30;3.10;;;;;;;18.96;100.00;99659.94;4969107;28;20195;-76
2022/09/08 00:33:14;;;;;;;3.17;2.87;;;;;;;18.96;100.00;99653.88;4976864;28;20721;-75
2022/09/08 00:35:43;;;;;;;3.27;3.00;;;;;;;18.97;100.00;99659.00;4968393;28;20196;-75
2022/09/08 00:38:10;;;;;;;2.90;2.57;;;;;;;18.96;100.00;99662.56;4967666;28;20229;-75
2022/09/08 00:40:45;;;;;;;3.00;2.73;;;;;;;18.98;100.00;99657.25;4971611;28;20230;-75
2022/09/08 00:43:11;;;;;;;3.33;2.87;;;;;;;18.97;100.00;99658.19;4966191;28;20697;-75
2022/09/08 00:45:47;;;;;;;3.40;3.10;;;;;;;18.96;100.00;99659.94;4967950;28;20192;-77
2022/09/08 00:48:17;;;;;;;2.93;2.73;;;;;;;18.95;100.00;99655.63;4969573;28;20562;-77
2022/09/08 00:50:44;;;;;;;3.20;2.70;;;;;;;18.94;100.00;99653.06;4970525;28;20206;-75
2022/09/08 00:53:13;;;;;;;2.97;2.57;;;;;;;18.94;100.00;99664.41;4971798;28;20199;-75
2022/09/08 00:55:39;;;;;;;2.90;2.70;;;;;;;18.93;100.00;99665.31;4972410;28;20190;-75
2022/09/08 00:58:06;;;;;;;3.20;2.90;;;;;;;18.95;100.00;99666.13;4967626;28;20323;-75
2022/09/08 01:00:31;;;;;;;3.07;2.77;;;;;;;18.94;100.00;99668.81;4966362;28;20195;-76
2022/09/08 01:02:57;;;;;;;2.97;2.73;;;;;;;18.93;100.00;99669.72;4968258;28;20201;-75
2022/09/08 01:05:27;;;;;;;3.13;2.93;;;;;;;18.92;100.00;99676.72;4972274;28;20573;-75
2022/09/08 01:14:10;;;;;;;3.63;3.33;;;;;;;18.85;100.00;99667.50;4970411;28;20207;-75
2022/09/08 01:16:41;;;;;;;3.70;3.40;;;;;;;18.83;100.00;99659.72;4964842;28;20213;-75
2022/09/08 01:19:31;;;;;;;3.20;3.00;;;;;;;18.84;100.00;99658.78;4983229;28;20196;-75
2022/09/08 01:22:19;;;;;;;3.13;2.93;;;;;;;18.86;100.00;99662.19;4958283;28;20254;-75
2022/09/08 01:24:52;;;;;;;3.60;3.30;;;;;;;18.85;100.00;99664.88;4960282;28;20205;-76
2022/09/08 01:27:23;;;;;;;4.17;3.47;;;;;;;18.84;100.00;99658.78;4966286;28;20220;-75
2022/09/08 01:29:54;;;;;;;4.77;3.13;;;;;;;18.85;100.00;99659.66;4987944;28;20195;-76
2022/09/08 01:32:20;;;;;;;3.57;3.20;;;;;;;18.84;100.00;99664.03;4964620;28;20823;-77
2022/09/08 01:34:46;;;;;;;4.37;3.07;;;;;;;18.85;100.00;99657.84;4967898;28;20189;-76
2022/09/08 01:37:12;;;;;;;3.20;3.00;;;;;;;18.88;100.00;99655.06;4969325;28;20542;-77
2022/09/08 01:39:37;;;;;;;3.20;3.00;;;;;;;18.88;100.00;99636.72;4965647;28;20282;-75
2022/09/08 01:42:04;;;;;;;3.10;2.80;;;;;;;18.90;100.00;99639.28;4968746;28;20290;-75
2022/09/08 01:44:30;;;;;;;3.43;3.23;;;;;;;18.88;100.00;99628.88;4962905;28;20597;-76
2022/09/08 01:46:55;;;;;;;3.57;3.23;;;;;;;18.88;100.00;99625.41;4965310;28;20209;-75
2022/09/08 01:49:24;;;;;;;3.23;2.93;;;;;;;18.90;100.00;99631.41;4971899;28;20619;-76
2022/09/08 01:51:49;;;;;;;3.20;2.90;;;;;;;18.90;100.00;99628.78;4965801;28;20195;-75
2022/09/08 01:54:15;;;;;;;3.23;3.03;;;;;;;18.91;100.00;99616.53;4960590;28;20196;-75
2022/09/08 01:56:40;;;;;;;3.43;3.13;;;;;;;18.87;100.00;99621.09;4963390;28;20309;-77
2022/09/08 01:59:05;;;;;;;3.50;3.20;;;;;;;18.85;100.00;99623.78;4963623;28;20600;-74
2022/09/08 02:01:31;;;;;;;3.73;3.10;;;;;;;18.84;100.00;99626.50;4965649;28;20277;-75
2022/09/08 02:03:59;;;;;;;3.17;2.97;;;;;;;18.82;100.00;99634.44;4966238;28;20708;-76
2022/09/08 02:06:24;;;;;;;3.87;3.40;;;;;;;18.84;100.00;99634.34;4964116;28;20302;-75
2022/09/08 02:08:51;;;;;;;3.40;3.20;;;;;;;18.83;100.00;99627.41;4960583;28;20332;-77
2022/09/08 02:11:17;;;;;;;4.63;3.10;;;;;;;18.83;100.00;99633.50;4966459;28;20666;-75
2022/09/08 02:13:43;;;;;;;3.17;2.97;;;;;;;18.84;100.00;99626.50;4964486;28;20191;-75
2022/09/08 02:16:11;;;;;;;3.33;3.07;;;;;;;18.84;100.00;99621.25;4963679;28;20233;-76
2022/09/08 02:18:36;;;;;;;3.90;3.17;;;;;;;18.83;100.00;99620.38;4964701;28;20193;-76
2022/09/08 02:21:07;;;;;;;3.27;2.97;;;;;;;18.82;100.00;99621.34;4963509;28;20192;-78
2022/09/08 02:23:34;;;;;;;3.57;3.27;;;;;;;18.80;100.00;99617.97;4994613;28;20222;-75
2022/09/08 02:25:59;;;;;;;3.60;3.00;;;;;;;18.80;100.00;99625.81;4965748;28;20197;-74
2022/09/08 02:28:25;;;;;;;3.03;2.77;;;;;;;18.81;100.00;99617.03;4964781;28;20686;-75
2022/09/08 02:30:55;;;;;;;3.20;3.00;;;;;;;18.82;100.00;99626.59;4970550;28;20192;-76
2022/09/08 02:33:21;;;;;;;3.70;3.47;;;;;;;18.82;100.00;99618.72;4964021;28;20189;-74
2022/09/08 02:35:46;;;;;;;3.10;2.90;;;;;;;18.83;100.00;99619.56;4959234;28;20251;-78
2022/09/08 02:38:12;;;;;;;3.63;3.33;;;;;;;18.83;100.00;99616.94;4964860;28;20213;-76
2022/09/08 02:40:38;;;;;;;3.47;3.17;;;;;;;18.81;100.00;99614.41;4965710;28;20219;-78
2022/09/08 02:43:03;;;;;;;4.03;3.00;;;;;;;18.82;100.00;99616.09;4964382;28;20211;-75
2022/09/08 02:45:29;;;;;;;4.50;3.17;;;;;;;18.81;100.00;99619.66;4960235;28;20369;-75
2022/09/08 02:47:54;;;;;;;3.67;3.37;;;;;;;18.83;100.00;99614.31;4966481;28;20558;-75
2022/09/08 02:50:20;;;;;;;3.60;3.30;;;;;;;18.83;100.00;99622.19;4964443;28;20287;-77
2022/09/08 02:52:45;;;;;;;3.63;3.40;;;;;;;18.83;100.00;99611.69;4963771;28;20276;-75
2022/09/08 02:55:11;;;;;;;4.30;3.90;;;;;;;18.83;100.00;99614.31;4961139;28;20682;-74
2022/09/08 02:57:36;;;;;;;4.10;3.80;;;;;;;18.84;100.00;99616.00;4962741;28;20215;-77
2022/09/08 03:00:02;;;;;;;3.90;3.60;;;;;;;18.83;100.00;99603.84;4964406;28;20184;-75
2022/09/08 03:02:28;;;;;;;4.90;4.47;;;;;;;18.85;100.00;99607.22;4964150;28;20189;-75
2022/09/08 03:04:53;;;;;;;5.30;4.80;;;;;;;18.84;100.00;99605.53;4962616;28;20220;-76
2022/09/08 03:07:19;;;;;;;6.10;4.70;;;;;;;18.81;100.00;99609.16;4965974;28;20217;-75
2022/09/08 03:09:44;;;;;;;5.37;4.87;;;;;;;18.79;100.00;99607.53;4964470;28;20189;-76
2022/09/08 03:12:10;;;;;;;5.40;4.90;;;;;;;18.75;100.00;99614.72;4964224;28;20199;-76
2022/09/08 03:14:36;;;;;;;5.07;4.63;;;;;;;18.72;100.00;99618.38;4963442;28;20187;-74
2022/09/08 03:17:01;;;;;;;4.53;4.20;;;;;;;18.69;100.00;99608.03;4972395;28;20216;-76
2022/09/08 03:19:27;;;;;;;5.40;4.23;;;;;;;18.67;100.00;99603.81;4961043;28;20188;-74
2022/09/08 03:21:52;;;;;;;4.40;4.00;;;;;;;18.67;100.00;99599.41;4962930;28;20192;-77
2022/09/08 03:24:17;;;;;;;4.30;3.90;;;;;;;18.66;100.00;99597.72;4966149;28;20216;-75
2022/09/08 03:26:43;;;;;;;4.00;3.57;;;;;;;18.68;100.00;99602.91;4964300;28;20711;-76
2022/09/08 03:29:08;;;;;;;4.33;4.03;;;;;;;18.68;100.00;99592.41;4958844;28;20771;-78
2022/09/08 03:31:35;;;;;;;4.43;4.10;;;;;;;18.68;100.00;99602.91;4964635;28;20220;-76
2022/09/08 03:34:00;;;;;;;3.93;3.63;;;;;;;18.67;100.00;99609.91;4963796;28;20192;-79
2022/09/08 03:36:26;;;;;;;5.77;3.63;;;;;;;18.67;100.00;99598.59;4962915;28;20307;-81
2022/09/08 03:38:51;;;;;;;3.70;3.37;;;;;;;18.65;100.00;99601.28;4963219;28;20278;-77
2022/09/08 03:41:17;;;;;;;4.67;2.83;;;;;;;18.69;100.00;99612.44;4965819;28;20667;-76
2022/09/08 03:43:44;;;;;;;3.43;2.90;;;;;;;18.64;100.00;99607.44;4958083;28;20218;-76
2022/09/08 03:46:10;;;;;;;3.27;2.97;;;;;;;18.59;100.00;99614.72;4956207;28;20258;-78
2022/09/08 03:48:36;;;;;;;3.30;3.00;;;;;;;18.61;100.00;99631.19;4962764;28;20184;-77
2022/09/08 03:51:28;;;;;;;3.83;3.20;;;;;;;18.53;100.00;99630.75;4965362;28;20187;-76
2022/09/08 03:56:42;;;;;;;2.50;2.30;;;;;;;18.42;100.00;99626.94;4968688;28;20279;-74
2022/09/08 03:59:08;;;;;;;2.50;2.10;;;;;;;18.36;100.00;99636.88;4961459;28;20190;-77
2022/09/08 04:01:34;;;;;;;2.37;2.13;;;;;;;18.31;100.00;99631.03;4965567;28;20190;-76
2022/09/08 04:03:59;;;;;;;2.40;1.70;;;;;;;18.27;100.00;99632.97;4970160;28;20381;-75
2022/09/08 04:06:25;;;;;;;2.47;1.70;;;;;;;18.19;100.00;99635.13;4967184;28;20304;-76
2022/09/08 04:08:50;;;;;;;1.77;1.67;;;;;;;18.12;100.00;99638.06;4967814;28;20193;-77
2022/09/08 04:11:15;;;;;;;2.10;1.90;;;;;;;18.10;100.00;99652.13;4958616;28;20208;-76
2022/09/08 04:13:41;;;;;;;1.77;1.40;;;;;;;18.04;100.00;99655.91;4967849;28;20190;-76
2022/09/08 04:16:06;;;;;;;2.33;1.43;;;;;;;18.00;100.00;99656.16;4969686;28;20187;-79
2022/09/08 04:18:32;;;;;;;3.13;1.57;;;;;;;17.97;100.00;99650.13;4968268;28;20277;-75
2022/09/08 04:20:59;;;;;;;2.33;1.60;;;;;;;17.87;100.00;99648.03;4970749;28;20627;-77
2022/09/08 04:23:26;;;;;;;1.70;1.60;;;;;;;17.78;100.00;99649.31;4969763;28;20217;-75
2022/09/08 04:25:59;;;;;;;2.37;1.53;;;;;;;17.77;100.00;99645.03;4970092;28;20197;-76
2022/09/08 04:28:24;;;;;;;3.33;1.53;;;;;;;17.72;100.00;99665.34;4968499;28;20190;-76
2022/09/08 04:30:50;;;;;;;1.83;1.27;;;;;;;17.65;100.00;99667.41;4992059;28;20181;-75
2022/09/08 04:33:16;;;;;;;2.70;1.40;;;;;;;17.50;100.00;99667.22;4968745;28;20207;-76
2022/09/08 04:35:42;;;;;;;2.90;1.43;;;;;;;17.46;100.00;99663.06;4971541;28;20663;-75
2022/09/08 04:38:07;;;;;;;1.27;0.90;;;;;;;17.38;100.00;99657.34;4972978;28;20265;-77
2022/09/08 04:40:33;;;;;;;2.80;1.17;;;;;;;17.33;100.00;99668.00;4972415;28;20196;-76
2022/09/08 04:42:59;;;;;;;1.23;1.07;;;;;;;17.23;100.00;99685.06;4971597;28;20570;-78
2022/09/08 04:45:24;;;;;;;1.40;1.20;;;;;;;17.13;100.00;99687.25;4974816;28;20194;-74
2022/09/08 04:47:49;;;;;;;3.90;1.10;;;;;;;17.12;100.00;99675.09;4970214;28;20214;-77
2022/09/08 04:50:15;;;;;;;1.23;0.80;;;;;;;17.06;100.00;99684.06;4961897;28;20907;-76
2022/09/08 04:52:40;;;;;;;1.67;0.70;;;;;;;17.01;100.00;99682.56;4972187;28;20190;-76
2022/09/08 04:55:07;;;;;;;1.63;1.30;;;;;;;16.95;100.00;99701.13;4970356;28;20562;-76
2022/09/08 04:57:33;;;;;;;2.10;1.20;;;;;;;16.91;100.00;99706.50;4967626;28;20216;-75
2022/09/08 04:59:58;;;;;;;1.90;1.17;;;;;;;16.89;100.00;99703.09;4977856;28;20284;-79
2022/09/08 05:02:24;;;;;;;1.10;1.00;;;;;;;16.89;100.00;99704.84;4974364;28;20623;-79
2022/09/08 05:04:49;;;;;;;1.57;1.07;;;;;;;16.85;100.00;99698.91;4980178;28;20686;-75
2022/09/08 05:07:14;;;;;;;1.23;1.00;;;;;;;16.83;100.00;99705.13;4983296;28;20210;-77
2022/09/08 05:09:40;;;;;;;1.87;0.90;;;;;;;16.80;100.00;99708.72;4975152;28;20272;-75
2022/09/08 05:12:05;;;;;;;2.60;1.00;;;;;;;16.77;100.00;99701.03;4980674;28;20209;-77
2022/09/08 05:14:30;;;;;;;1.47;1.10;;;;;;;16.75;100.00;99698.47;4981434;28;20584;-75
2022/09/08 05:16:56;;;;;;;1.60;1.03;;;;;;;16.75;100.00;99703.69;4984591;28;20245;-73
2022/09/08 05:19:21;;;;;;;1.03;0.90;;;;;;;16.73;100.00;99699.47;4968012;28;20190;-77
2022/09/08 05:21:46;;;;;;;0.80;0.80;;;;;;;16.71;100.00;99703.91;4969121;28;20209;-76
2022/09/08 05:24:11;;;;;;;1.10;0.90;;;;;;;16.72;100.00;99714.28;4969190;28;20646;-76
2022/09/08 05:26:37;;;;;;;1.23;0.97;;;;;;;16.71;100.00;99712.56;4971620;28;20205;-75
2022/09/08 05:29:03;;;;;;;0.90;0.80;;;;;;;16.74;100.00;99722.06;4974176;28;20192;-76
2022/09/08 05:31:30;;;;;;;0.97;0.80;;;;;;;16.72;100.00;99734.34;4981293;28;20511;-76
2022/09/08 05:33:57;;;;;;;1.20;0.80;;;;;;;16.74;100.00;99735.13;4970588;28;20269;-76
2022/09/08 05:36:28;;;;;;;2.07;0.90;;;;;;;16.76;100.00;99741.97;4971805;28;20213;-76
2022/09/08 05:38:54;;;;;;;1.10;1.00;;;;;;;16.78;100.00;99739.31;4981538;28;20211;-75
2022/09/08 05:41:20;;;;;;;1.20;1.10;;;;;;;16.79;100.00;99735.75;4970446;28;20721;-75
2022/09/08 05:43:45;;;;;;;2.30;1.00;;;;;;;16.79;100.00;99745.38;4972734;28;20210;-76
2022/09/08 05:46:11;;;;;;;1.10;1.00;;;;;;;16.77;100.00;99748.91;4979431;28;20315;-76
2022/09/08 05:48:37;;;;;;;0.83;0.80;;;;;;;16.77;100.00;99754.13;4970208;28;20190;-77
2022/09/08 05:51:08;;;;;;;0.73;0.73;;;;;;;16.77;100.00;99751.50;4975828;28;20249;-77
2022/09/08 05:53:33;;;;;;;0.73;0.73;;;;;;;16.75;100.00;99750.72;4969698;28;20182;-76
2022/09/08 05:56:02;;;;;;;0.90;0.90;;;;;;;16.73;100.00;99760.38;4967866;28;20242;-77
2022/09/08 05:58:28;;;;;;;1.07;0.90;;;;;;;16.76;100.00;99756.81;4965763;28;20654;-75
2022/09/08 06:00:56;;;;;;;0.70;0.70;;;;;;;16.76;100.00;99762.88;4973384;28;20192;-76
2022/09/08 06:03:22;;;;;;;0.87;0.70;;;;;;;16.76;100.00;99751.59;4979970;28;20207;-75
2022/09/08 06:05:47;;;;;;;0.70;0.70;;;;;;;16.78;100.00;99757.59;4979101;28;20239;-78
2022/09/08 06:08:12;;;;;;;0.70;0.70;;;;;;;16.81;100.00;99754.00;4973705;28;20230;-77
2022/09/08 06:10:37;;;;;;;1.20;1.10;;;;;;;16.85;100.00;99766.88;4974980;28;20193;-75
2022/09/08 06:13:03;;;;;;;1.17;0.90;;;;;;;16.89;100.00;99764.97;4976398;28;20212;-74
2022/09/08 06:15:29;;;;;;;1.00;0.90;;;;;;;16.92;100.00;99776.16;4983941;28;20262;-76
2022/09/08 06:17:54;;;;;;;1.43;0.80;;;;;;;16.96;100.00;99776.88;4981591;28;20269;-76
2022/09/08 06:20:20;;;;;;;1.00;0.80;;;;;;;17.00;100.00;99770.63;4972728;28;20201;-76
2022/09/08 06:22:45;;;;;;;0.90;0.80;;;;;;;17.04;100.00;99769.53;4973454;28;20273;-76
2022/09/08 06:25:10;;;;;;;1.17;0.90;;;;;;;17.09;100.00;99782.44;4975997;28;20210;-76
2022/09/08 06:27:57;;;;;;;0.90;0.90;;;;;;;17.14;100.00;99782.22;4973217;28;20206;-77
2022/09/08 06:30:23;;;;;;;1.00;0.90;;;;;;;17.18;100.00;99794.22;4956451;28;20189;-78
2022/09/08 06:33:01;;;;;;;1.30;1.10;;;;;;;17.23;100.00;99786.19;4978632;28;20210;-75
2022/09/08 06:35:36;;;;;;;1.83;0.80;;;;;;;17.26;100.00;99786.03;4967188;28;20181;-78
2022/09/08 06:38:22;;;;;;;1.43;1.00;;;;;;;17.31;100.00;99789.31;4970809;28;20752;-75
2022/09/08 06:40:53;;;;;;;1.67;0.90;;;;;;;17.36;100.00;99792.56;4971027;28;20189;-75
2022/09/08 06:43:27;;;;;;;0.97;0.70;;;;;;;17.41;100.00;99787.97;4969824;28;20704;-77
2022/09/08 06:45:55;;;;;;;1.33;0.90;;;;;;;17.49;100.00;99795.47;4965327;28;20188;-74
2022/09/08 06:48:31;;;;;;;1.43;0.90;;;;;;;17.51;100.00;99785.78;4970016;28;20692;-79
2022/09/08 06:51:12;;;;;;;0.80;0.80;;;;;;;17.57;100.00;99795.09;4964272;28;20194;-74
2022/09/08 06:54:06;;;;;;;0.70;0.60;;;;;;;17.63;100.00;99789.59;4961909;28;20183;-78
2022/09/08 06:56:51;;;;;;;0.80;0.80;;;;;;;17.71;100.00;99797.94;4975116;28;20198;-74
2022/09/08 06:59:32;;;;;;;2.07;1.20;;;;;;;17.81;100.00;99790.50;4976805;28;20683;-74
2022/09/08 07:02:07;;;;;;;1.63;0.97;;;;;;;17.90;100.00;99804.94;4978163;28;20247;-74
2022/09/08 07:04:50;;;;;;;1.53;0.80;;;;;;;17.92;100.00;99795.25;4952430;28;20702;-74
2022/09/08 07:07:42;;;;;;;1.47;1.00;;;;;;;18.00;100.00;99802.75;4969689;28;20302;-76
2022/09/08 07:10:07;;;;;;;1.53;0.80;;;;;;;18.05;100.00;99803.41;4982705;28;20187;-75
2022/09/08 07:12:45;;;;;;;1.57;0.60;;;;;;;18.12;100.00;99805.66;4978568;28;20747;-75
2022/09/08 07:15:42;;;;;;;2.40;0.90;;;;;;;18.17;100.00;99801.94;4971751;28;20224;-76
2022/09/08 07:18:28;;;;;;;1.50;0.90;;;;;;;18.21;100.00;99806.13;4966647;28;20700;-75
2022/09/08 07:21:12;;;;;;;1.00;0.90;;;;;;;18.18;100.00;99801.88;4978443;28;20187;-78
2022/09/08 07:23:39;;;;;;;1.43;0.87;;;;;;;18.23;100.00;99807.72;4967428;28;20303;-76
2022/09/08 07:26:16;;;;;;;1.13;0.87;;;;;;;18.29;100.00;99817.09;4980791;28;20664;-75
2022/09/08 07:28:45;;;;;;;1.57;0.87;;;;;;;18.31;100.00;99819.63;4966525;28;20186;-75
2022/09/08 07:31:22;;;;;;;3.43;1.23;;;;;;;18.24;100.00;99821.69;4973453;28;20196;-76
2022/09/08 07:34:11;;;;;;;1.40;1.10;;;;;;;18.20;100.00;99826.22;4975023;28;20181;-75
2022/09/08 07:36:43;;;;;;;0.97;0.80;;;;;;;18.29;100.00;99824.94;4970547;28;20222;-76
2022/09/08 07:39:19;;;;;;;1.20;0.93;;;;;;;18.35;100.00;99824.63;4972238;28;20181;-78
2022/09/08 07:41:48;;;;;;;1.33;0.90;;;;;;;18.38;100.00;99824.47;4980041;28;20188;-74
2022/09/08 07:44:18;;;;;;;1.23;0.90;;;;;;;18.43;100.00;99835.59;4981425;28;20230;-75
2022/09/08 07:47:21;;;;;;;2.20;1.07;;;;;;;18.49;100.00;99836.19;4970762;28;20210;-75
2022/09/08 07:50:03;;;;;;;1.43;0.90;;;;;;;18.51;100.00;99837.84;4967329;28;20189;-73
2022/09/08 07:52:50;;;;;;;2.70;1.20;;;;;;;18.57;100.00;99849.78;4978204;28;20252;-74
2022/09/08 07:55:34;;;;;;;2.07;1.07;;;;;;;18.65;100.00;99841.53;4965261;28;20209;-75
2022/09/08 07:58:21;;;;;;;1.07;0.70;;;;;;;18.80;100.00;99847.78;4972939;28;20212;-78
2022/09/08 08:01:00;;;;;;;2.20;0.80;;;;;;;18.95;100.00;99843.56;4967888;28;20183;-73
2022/09/08 08:03:47;;;;;;;2.23;1.10;;;;;;;19.14;100.00;99853.97;4965709;28;20216;-75
2022/09/08 08:06:40;;;;;;;1.23;0.70;;;;;;;19.31;100.00;99851.31;4966653;28;20195;-75
2022/09/08 08:09:44;;;;;;;1.97;0.97;;;;;;;19.59;100.00;99849.84;4981010;28;20192;-75
2022/09/08 08:12:40;;;;;;;2.97;0.90;;;;;;;19.84;100.00;99850.28;4969837;28;20284;-76
2022/09/08 08:15:19;;;;;;;2.07;0.70;;;;;;;19.97;100.00;99853.97;4960295;28;20180;-75
2022/09/08 08:17:59;;;;;;;2.37;0.80;;;;;;;20.04;100.00;99857.09;4966427;28;20220;-74
2022/09/08 08:20:27;;;;;;;1.37;0.70;;;;;;;20.13;100.00;99853.94;4973971;28;20277;-76
2022/09/08 08:23:33;;;;;;;2.03;1.00;;;;;;;20.31;100.00;99859.97;4969951;28;20182;-75
2022/09/08 08:26:38;;;;;;;1.20;0.93;;;;;;;20.61;100.00;99859.16;4968196;28;20213;-73
2022/09/08 08:29:06;;;;;;;0.70;0.70;;;;;;;20.83;100.00;99865.81;4963152;28;20209;-77
2022/09/08 08:31:49;;;;;;;1.27;0.60;;;;;;;20.97;100.00;99865.00;4970575;28;20186;-74
2022/09/08 08:34:31;;;;;;;2.80;0.80;;;;;;;21.07;100.00;99857.41;4963959;28;20186;-78
2022/09/08 08:37:01;;;;;;;1.10;0.67;;;;;;;21.08;100.00;99854.69;4969273;28;20273;-75
2022/09/08 08:39:27;;;;;;;0.63;0.60;;;;;;;21.14;100.00;99862.22;4979462;28;20178;-74
2022/09/08 08:42:10;;;;;;;2.00;0.80;;;;;;;21.23;100.00;99863.44;4974018;28;20244;-74
2022/09/08 08:44:50;;;;;;;0.87;0.80;;;;;;;21.35;100.00;99866.28;4974444;28;20284;-74
2022/09/08 08:47:41;;;;;;;0.80;0.60;;;;;;;21.58;100.00;99868.31;4962786;28;20210;-74
2022/09/08 08:50:36;;;;;;;0.60;0.60;;;;;;;22.03;100.00;99869.97;4972995;28;20190;-74
2022/09/08 08:53:12;;;;;;;1.00;0.70;;;;;;;22.30;100.00;99866.53;4967485;28;20565;-77
2022/09/08 08:55:49;;;;;;;0.60;0.60;;;;;;;22.35;100.00;99867.94;4972925;28;20186;-76
2022/09/08 08:58:32;;;;;;;1.10;0.70;;;;;;;22.35;100.00;99869.72;4973983;28;20252;-75
2022/09/08 09:01:16;;;;;;;1.30;0.60;;;;;;;22.45;100.00;99870.00;4976520;28;20190;-76
2022/09/08 09:04:16;;;;;;;1.57;0.80;;;;;;;22.60;100.00;99858.44;4974270;28;20210;-73
2022/09/08 09:06:50;;;;;;;1.83;0.70;;;;;;;22.72;99.94;99869.09;4976690;28;20306;-74
2022/09/08 09:09:21;;;;;;;0.63;0.50;;;;;;;22.62;98.39;99869.72;4967864;28;20193;-74
2022/09/08 09:11:49;;;;;;;0.77;0.50;;;;;;;22.52;97.78;99866.84;4978667;28;20190;-74
2022/09/08 09:14:27;;;;;;;1.00;0.50;;;;;;;22.71;95.58;99870.06;4980729;28;20190;-74
2022/09/08 09:17:09;;;;;;;0.73;0.40;;;;;;;22.97;94.54;99874.44;4973377;28;20201;-75
2022/09/08 09:20:03;;;;;;;0.83;0.47;;;;;;;23.47;94.03;99867.59;4972497;28;20178;-77
2022/09/08 09:22:44;;;;;;;0.77;0.70;;;;;;;23.69;92.81;99869.59;4967138;28;20194;-77
2022/09/08 09:25:12;;;;;;;0.80;0.60;;;;;;;23.54;92.36;99866.22;4970902;28;20279;-74
2022/09/08 09:27:42;;;;;;;0.57;0.40;;;;;;;23.28;91.40;99860.97;4975112;28;20237;-76
2022/09/08 09:30:35;;;;;;;0.80;0.50;;;;;;;22.88;92.12;99867.13;4969940;28;20220;-75
2022/09/08 09:33:09;;;;;;;0.60;0.50;;;;;;;22.72;93.11;99872.59;4971366;28;20193;-74
2022/09/08 09:36:14;;;;;;;0.40;0.40;;;;;;;22.63;93.84;99860.88;4967444;28;20178;-74
2022/09/08 09:39:17;;;;;;;0.40;0.40;;;;;;;22.71;93.66;99860.34;4986517;28;20274;-76
2022/09/08 09:42:12;;;;;;;0.80;0.43;;;;;;;23.04;92.50;99852.91;4967981;28;20563;-74
2022/09/08 09:45:16;;;;;;;1.03;0.50;;;;;;;23.22;91.78;99850.81;4972918;28;20213;-74
2022/09/08 09:48:29;;;;;;;0.97;0.60;;;;;;;23.46;91.42;99847.44;4964541;28;20585;-75
2022/09/08 09:51:05;;;;;;;1.30;0.50;;;;;;;23.77;89.29;99850.53;4970801;28;20182;-75
2022/09/08 09:54:17;;;;;;;1.07;0.60;;;;;;;24.06;87.42;99851.09;4970735;28;20670;-75
2022/09/08 09:56:54;;;;;;;0.77;0.57;;;;;;;24.26;87.27;99847.03;4969908;28;20209;-76
2022/09/08 09:59:50;;;;;;;1.23;0.70;;;;;;;24.46;87.12;99853.47;4983947;28;20201;-76
2022/09/08 10:02:40;;;;;;;0.93;0.50;;;;;;;24.59;86.62;99848.09;4978346;28;20189;-74
2022/09/08 10:05:42;;;;;;;0.77;0.43;;;;;;;24.53;86.08;99855.66;4977220;28;20246;-74
2022/09/08 10:08:16;;;;;;;0.83;0.50;;;;;;;24.33;84.07;99847.41;4976392;28;20239;-74
2022/09/08 10:11:20;;;;;;;0.80;0.50;;;;;;;24.16;84.74;99846.84;4971479;28;20673;-73
2022/09/08 10:14:04;;;;;;;0.87;0.50;;;;;;;24.08;85.10;99851.84;4923782;29;20191;-75
2022/09/08 10:16:47;;;;;;;2.13;0.83;;;;;;;24.02;85.14;99841.72;4922513;29;20259;-74
2022/09/08 10:19:27;;;;;;;1.23;0.70;;;;;;;23.97;85.37;99850.00;4963364;28;20662;-73
2022/09/08 10:22:31;;;;;;;1.90;0.70;;;;;;;23.92;83.93;99840.66;4974746;28;20193;-74
2022/09/08 10:25:15;;;;;;;1.20;0.70;;;;;;;23.88;82.20;99850.63;4908646;29;20768;-74
2022/09/08 10:27:55;;;;;;;2.20;0.90;;;;;;;23.97;81.92;99854.44;4979426;28;20313;-77
2022/09/08 10:30:38;;;;;;;2.60;0.67;;;;;;;24.03;81.82;99843.41;4975479;28;20193;-74
2022/09/08 10:33:28;;;;;;;0.87;0.70;;;;;;;24.18;81.83;99863.44;4978292;28;20212;-73
2022/09/08 10:36:13;;;;;;;1.90;0.70;;;;;;;24.53;80.64;99853.00;4983492;28;20648;-74
2022/09/08 10:38:56;;;;;;;1.50;0.67;;;;;;;24.49;80.59;99852.41;4977426;28;20206;-74
2022/09/08 10:41:25;;;;;;;2.10;1.00;;;;;;;24.30;81.29;99863.50;4972698;28;20196;-74
2022/09/08 10:44:14;;;;;;;1.70;0.60;;;;;;;24.15;82.00;99857.53;4979758;28;20224;-74
2022/09/08 10:47:08;;;;;;;2.20;0.70;;;;;;;24.07;82.23;99866.00;4974892;28;20253;-74
2022/09/08 10:50:10;;;;;;;1.37;0.80;;;;;;;24.12;82.31;99869.19;4974426;28;20273;-74
2022/09/08 10:52:44;;;;;;;1.73;0.77;;;;;;;24.24;81.95;99864.81;4984679;28;20181;-74
2022/09/08 10:55:37;;;;;;;1.83;0.87;;;;;;;24.20;82.35;99865.97;4974309;28;20197;-75
2022/09/08 10:58:24;;;;;;;0.97;0.63;;;;;;;23.98;83.04;99866.69;4971649;28;20251;-72
2022/09/08 11:01:16;;;;;;;1.50;0.70;;;;;;;23.73;84.09;99869.25;4968446;28;20228;-74
2022/09/08 11:04:08;;;;;;;2.10;1.10;;;;;;;23.46;83.48;99858.81;4970239;28;20292;-76
2022/09/08 11:06:52;;;;;;;1.13;0.90;;;;;;;23.34;83.98;99862.31;4968026;28;20674;-73
2022/09/08 11:09:29;;;;;;;1.80;0.73;;;;;;;23.41;83.68;99863.59;4964106;28;20592;-73
2022/09/08 11:12:12;;;;;;;1.10;0.83;;;;;;;23.50;83.93;99864.75;4965243;28;20200;-75
2022/09/08 11:14:57;;;;;;;2.90;0.90;;;;;;;23.61;83.10;99851.63;4970232;28;20229;-74
2022/09/08 11:17:24;;;;;;;0.90;0.63;;;;;;;23.61;83.08;99862.19;4970416;28;20249;-73
2022/09/08 11:20:02;;;;;;;1.57;0.87;;;;;;;23.69;82.85;99856.38;4972486;28;20240;-74
2022/09/08 11:22:46;;;;;;;1.73;1.10;;;;;;;23.77;82.19;99848.72;4968851;28;20213;-74
2022/09/08 11:25:23;;;;;;;2.03;1.00;;;;;;;23.74;82.24;99855.09;4970591;28;20260;-73
2022/09/08 11:28:04;;;;;;;1.40;0.83;;;;;;;23.63;82.32;99854.16;4980795;28;20303;-74
2022/09/08 11:30:43;;;;;;;2.13;0.90;;;;;;;23.64;79.37;99843.50;4977973;28;20280;-74
2022/09/08 11:33:33;;;;;;;0.97;0.77;;;;;;;23.60;80.53;99834.09;4966527;28;20216;-78
2022/09/08 11:36:06;;;;;;;1.83;0.80;;;;;;;23.65;81.28;99842.56;4969211;28;20232;-73
2022/09/08 11:39:10;;;;;;;1.43;0.83;;;;;;;23.72;81.89;99840.31;4980414;28;20701;-74
2022/09/08 11:42:08;;;;;;;2.20;1.10;;;;;;;23.98;79.66;99849.03;4934071;28;20198;-75
2022/09/08 11:44:46;;;;;;;2.13;1.03;;;;;;;24.31;80.00;99836.94;4976868;28;20697;-74
2022/09/08 11:47:54;;;;;;;2.27;1.30;;;;;;;24.59;80.18;99840.16;4979991;28;20287;-75
2022/09/08 11:50:31;;;;;;;3.90;1.20;;;;;;;24.65;80.00;99841.53;4970913;28;20212;-76
2022/09/08 11:53:05;;;;;;;2.63;1.00;;;;;;;24.65;80.01;99838.88;4972811;28;20645;-74
2022/09/08 11:55:43;;;;;;;1.53;0.80;;;;;;;24.83;79.89;99841.09;4970731;28;20229;-74
2022/09/08 11:58:41;;;;;;;2.10;0.97;;;;;;;25.03;78.65;99835.13;4971862;28;20584;-74
2022/09/08 12:01:45;;;;;;;1.97;1.03;;;;;;;25.09;76.28;99831.16;4977869;28;20181;-75
2022/09/08 12:04:16;;;;;;;3.47;1.00;;;;;;;24.91;76.23;99839.56;4953643;28;20253;-74
2022/09/08 12:07:09;;;;;;;1.83;1.00;;;;;;;24.75;76.87;99842.53;4970561;28;20713;-75
2022/09/08 12:09:45;;;;;;;1.07;0.70;;;;;;;24.71;77.69;99843.72;4966084;28;20213;-75